LIMJ/GOA METAR and TAF weather

Enter ICAO airport designator
Station Type Date Time Source
LIMJ METAR 2019/12/08 03:50 UTC NOAA

LIMJ 080350Z 03005KT 9999 BKN023 12/09 Q1019


Station Type Date Time Source
LIMJ Decoded METAR 2019/12/08 03:50 UTC NOAA

Genova / Sestri, Italy (LIMJ) 44-25N 008-51E 3M
Dec 07, 2019 - 10:50 PM EST / 2019.12.08 0350 UTC
Wind: from the NNE (030 degrees) at 6 MPH (5 KT):0
Visibility: greater than 7 mile(s):0
Sky conditions: mostly cloudy
Temperature: 53 F (12 C)
Dew Point: 48 F (9 C)
Relative Humidity: 81%
Pressure (altimeter): 30.09 in. Hg (1019 hPa)
ob: LIMJ 080350Z 03005KT 9999 BKN023 12/09 Q1019
cycle: 4

Station Type Date Time Source
LIMJ TAF 2019/12/07 18:24 UTC NOAA

TAF LIMJ 071700Z 0718/0818 07006KT 9999 SCT040 PROB40
TEMPO 0722/0818 4000 SHRA
BECMG 0808/0810 17010KT

Example: see airport list